createdAt,value
2017-09-19T00:01:42.681Z,98733.83
2017-09-19T00:04:09.228Z,98730.40
2017-09-19T00:06:35.664Z,98724.19
2017-09-19T00:09:02.911Z,98730.73
2017-09-19T00:11:29.354Z,98728.53
2017-09-19T00:13:55.840Z,98732.23
2017-09-19T00:16:22.313Z,98726.42
2017-09-19T00:18:48.757Z,98728.61
2017-09-19T00:21:15.196Z,98724.09
2017-09-19T00:23:41.732Z,98717.42
2017-09-19T00:26:08.885Z,98725.85
2017-09-19T00:28:35.318Z,98714.72
2017-09-19T00:31:01.754Z,98712.30
2017-09-19T00:33:28.290Z,98713.45
2017-09-19T00:35:54.656Z,98714.55
2017-09-19T00:38:21.047Z,98709.89
2017-09-19T00:40:47.490Z,98704.75
2017-09-19T00:43:14.645Z,98694.98
2017-09-19T00:45:41.090Z,98701.95
2017-09-19T00:48:07.515Z,98699.58
2017-09-19T00:50:33.949Z,98694.65
2017-09-19T00:53:00.486Z,98699.22
2017-09-19T00:55:26.921Z,98693.61
2017-09-19T00:57:53.357Z,98693.62
2017-09-19T01:00:20.608Z,98696.44
2017-09-19T01:02:47.148Z,98694.61
2017-09-19T01:05:13.582Z,98693.81
2017-09-19T01:07:40.017Z,98688.27
2017-09-19T01:10:06.457Z,98687.05
2017-09-19T01:12:32.887Z,98689.28
2017-09-19T01:14:59.322Z,98684.14
2017-09-19T01:17:26.474Z,98687.42
2017-09-19T01:19:52.909Z,98683.67
2017-09-19T01:22:19.295Z,98682.72
2017-09-19T01:24:45.727Z,98679.90
2017-09-19T01:27:12.201Z,98676.95
2017-09-19T01:29:38.650Z,98678.30
2017-09-19T01:32:05.083Z,98674.27
2017-09-19T01:34:32.245Z,98666.55
2017-09-19T01:36:58.671Z,98669.61
2017-09-19T01:39:25.065Z,98661.30
2017-09-19T01:41:51.536Z,98666.55
2017-09-19T01:44:18.077Z,98661.35
2017-09-19T01:46:44.519Z,98657.99
2017-09-19T01:49:10.951Z,98656.33
2017-09-19T01:51:38.201Z,98657.85
2017-09-19T01:54:04.722Z,98655.04
2017-09-19T01:56:31.275Z,98654.69
2017-09-19T01:58:57.710Z,98655.61
2017-09-19T02:01:24.145Z,98651.63
2017-09-19T02:03:50.682Z,98652.50
2017-09-19T02:06:17.117Z,98648.80
2017-09-19T02:08:44.326Z,98649.61
2017-09-19T02:11:10.806Z,98649.47
2017-09-19T02:13:37.343Z,98648.34
2017-09-19T02:16:03.727Z,98653.03
2017-09-19T02:18:30.197Z,98646.23
2017-09-19T02:20:56.649Z,98648.39
2017-09-19T02:23:23.186Z,98652.91
2017-09-19T02:25:50.326Z,98648.55
2017-09-19T02:28:16.769Z,98655.48
2017-09-19T02:30:43.221Z,98651.52
2017-09-19T02:33:09.748Z,98649.02
2017-09-19T02:35:36.170Z,98646.72
2017-09-19T02:38:02.616Z,98640.09
2017-09-19T02:40:29.152Z,98647.83
2017-09-19T02:42:56.303Z,98641.02
2017-09-19T02:45:22.741Z,98643.41
2017-09-19T02:47:49.175Z,98641.77
2017-09-19T02:50:15.610Z,98639.45
2017-09-19T02:52:42.148Z,98641.42
2017-09-19T02:55:08.584Z,98636.63
2017-09-19T02:57:35.104Z,98635.05
2017-09-19T03:00:02.270Z,98640.03
2017-09-19T03:02:28.705Z,98638.45
2017-09-19T03:04:55.140Z,98636.59
2017-09-19T03:07:21.574Z,98630.12
2017-09-19T03:09:48.009Z,98636.41
2017-09-19T03:12:14.446Z,98633.00
2017-09-19T03:14:40.879Z,98635.05
2017-09-19T03:17:08.120Z,98630.20
2017-09-19T03:19:34.567Z,98635.02
2017-09-19T03:22:01.105Z,98632.16
2017-09-19T03:24:27.643Z,98634.78
2017-09-19T03:26:54.078Z,98626.97
2017-09-19T03:29:20.512Z,98631.25
2017-09-19T03:31:46.947Z,98631.67
2017-09-19T03:34:14.098Z,98630.31
2017-09-19T03:36:40.462Z,98628.37
2017-09-19T03:39:06.956Z,98627.22
2017-09-19T03:41:33.397Z,98628.84
2017-09-19T03:43:59.940Z,98620.68
2017-09-19T03:46:26.375Z,98617.66
2017-09-19T03:48:52.810Z,98616.40
2017-09-19T03:51:20.064Z,98610.09
2017-09-19T03:53:46.550Z,98613.41
2017-09-19T03:56:13.042Z,98617.07
2017-09-19T03:58:39.471Z,98612.48
2017-09-19T04:01:05.906Z,98610.05
2017-09-19T04:03:32.444Z,98612.97
2017-09-19T04:05:58.879Z,98611.75
2017-09-19T04:08:26.030Z,98608.79
2017-09-19T04:10:52.434Z,98609.64
2017-09-19T04:13:19.003Z,98613.08
2017-09-19T04:15:45.438Z,98610.81
2017-09-19T04:18:11.873Z,98607.84
2017-09-19T04:20:38.308Z,98610.59
2017-09-19T04:23:04.845Z,98608.44
2017-09-19T04:25:31.998Z,98608.36
2017-09-19T04:27:58.431Z,98603.41
2017-09-19T04:30:24.867Z,98605.75
2017-09-19T04:32:51.506Z,98597.45
2017-09-19T04:35:18.035Z,98603.31
2017-09-19T04:37:44.513Z,98601.20
2017-09-19T04:40:10.995Z,98595.35
2017-09-19T04:42:38.168Z,98596.00
2017-09-19T04:45:04.557Z,98596.34
2017-09-19T04:47:31.040Z,98595.59
2017-09-19T04:49:57.472Z,98592.59
2017-09-19T04:52:23.907Z,98593.42
2017-09-19T04:54:50.342Z,98584.16
2017-09-19T04:57:16.777Z,98586.88
2017-09-19T04:59:43.911Z,98582.19
2017-09-19T05:02:10.389Z,98587.31
2017-09-19T05:04:36.900Z,98580.94
2017-09-19T05:07:03.338Z,98579.81
2017-09-19T05:09:29.731Z,98581.30
2017-09-19T05:11:56.200Z,98580.87
2017-09-19T05:14:22.746Z,98580.25
2017-09-19T05:16:49.690Z,98579.91
2017-09-19T05:19:16.112Z,98576.04
2017-09-19T05:21:42.560Z,98578.70
2017-09-19T05:24:09.302Z,98575.91
2017-09-19T05:26:35.794Z,98570.07
2017-09-19T05:29:02.276Z,98566.78
2017-09-19T05:31:28.709Z,98566.38
2017-09-19T05:33:55.433Z,98574.76
2017-09-19T05:36:21.875Z,98578.65
2017-09-19T05:38:48.327Z,98574.34
2017-09-19T05:41:14.860Z,98576.85
2017-09-19T05:43:41.396Z,98578.30
2017-09-19T05:46:08.035Z,98582.58
2017-09-19T05:48:34.470Z,98582.69
2017-09-19T05:51:00.905Z,98583.06
2017-09-19T05:53:27.652Z,98583.48
2017-09-19T05:55:54.081Z,98582.70
2017-09-19T05:58:20.488Z,98585.95
2017-09-19T06:00:48.181Z,98583.17
2017-09-19T06:03:14.718Z,98577.84
2017-09-19T06:05:41.255Z,98578.20
2017-09-19T06:08:07.691Z,98576.36
2017-09-19T06:10:34.125Z,98569.62
2017-09-19T06:13:00.968Z,98571.01
2017-09-19T06:15:27.404Z,98566.66
2017-09-19T06:17:53.839Z,98566.66
2017-09-19T06:20:20.230Z,98561.59
2017-09-19T06:22:46.711Z,98555.22
2017-09-19T06:25:13.246Z,98556.60
2017-09-19T06:27:39.681Z,98550.22
2017-09-19T06:30:06.116Z,98547.75
2017-09-19T06:32:32.552Z,98551.56
2017-09-19T06:34:58.987Z,98545.03
2017-09-19T06:37:25.523Z,98538.95
2017-09-19T06:39:51.958Z,98537.13
2017-09-19T06:42:18.598Z,98537.02
2017-09-19T06:44:45.340Z,98534.38
2017-09-19T06:47:11.736Z,98530.54
2017-09-19T06:49:38.211Z,98535.86
2017-09-19T06:52:04.800Z,98533.90
2017-09-19T06:54:31.285Z,98538.44
2017-09-19T06:56:57.723Z,98530.78
2017-09-19T06:59:24.565Z,98536.13
2017-09-19T07:01:50.999Z,98530.91
2017-09-19T07:04:17.539Z,98538.44
2017-09-19T07:06:44.179Z,98533.20
2017-09-19T07:09:10.611Z,98534.97
2017-09-19T07:11:37.045Z,98536.42
2017-09-19T07:14:03.618Z,98540.20
2017-09-19T07:16:30.327Z,98536.89
2017-09-19T07:18:56.761Z,98534.98
2017-09-19T07:21:23.195Z,98528.55
2017-09-19T07:23:50.072Z,98535.23
2017-09-19T07:26:16.580Z,98529.16
2017-09-19T07:28:43.116Z,98530.63
2017-09-19T07:31:09.551Z,98534.58
2017-09-19T07:33:36.082Z,98536.94
2017-09-19T07:36:02.472Z,98529.70
2017-09-19T07:38:29.040Z,98528.92
2017-09-19T07:40:55.440Z,98531.27
2017-09-19T07:43:21.927Z,98523.64
2017-09-19T07:45:48.364Z,98526.18
2017-09-19T07:48:14.755Z,98514.95
2017-09-19T07:50:41.233Z,98521.80
2017-09-19T07:53:08.081Z,98521.20
2017-09-19T07:55:34.821Z,98508.61
2017-09-19T07:58:01.715Z,98509.34
2017-09-19T08:00:28.611Z,98508.50
2017-09-19T08:02:55.147Z,98500.56
2017-09-19T08:05:21.904Z,98506.06
2017-09-19T08:07:48.531Z,98498.34
2017-09-19T08:10:15.119Z,98503.27
2017-09-19T08:12:41.619Z,98498.28
2017-09-19T08:15:08.449Z,98498.05
2017-09-19T08:17:35.177Z,98499.75
2017-09-19T08:20:01.737Z,98487.66
2017-09-19T08:22:28.471Z,98486.50
2017-09-19T08:24:55.216Z,98488.19
2017-09-19T08:27:21.861Z,98485.73
2017-09-19T08:29:48.697Z,98475.84
2017-09-19T08:32:15.239Z,98468.83
2017-09-19T08:34:42.796Z,98462.76
2017-09-19T08:37:09.272Z,98466.17
2017-09-19T08:39:36.090Z,98454.64
2017-09-19T08:42:02.613Z,98449.38
2017-09-19T08:44:29.150Z,98445.23
2017-09-19T08:46:55.586Z,98437.94
2017-09-19T08:49:22.019Z,98435.78
2017-09-19T08:51:48.456Z,98430.91
2017-09-19T08:54:15.197Z,98431.64
2017-09-19T08:56:41.642Z,98421.05
2017-09-19T08:59:08.027Z,98418.71
2017-09-19T09:01:34.401Z,98413.95
2017-09-19T09:04:00.937Z,98408.77
2017-09-19T09:06:27.371Z,98409.17
2017-09-19T09:08:53.806Z,98410.91
2017-09-19T09:11:20.241Z,98412.97
2017-09-19T09:13:46.734Z,98407.49
2017-09-19T09:16:13.316Z,98406.73
2017-09-19T09:18:39.700Z,98403.11
2017-09-19T09:21:06.287Z,98400.47
2017-09-19T09:23:32.932Z,98394.27
2017-09-19T09:25:59.572Z,98392.63
2017-09-19T09:28:26.098Z,98384.18
2017-09-19T09:30:53.256Z,98386.13
2017-09-19T09:33:19.748Z,98389.17
2017-09-19T09:35:46.231Z,98380.61
2017-09-19T09:38:12.664Z,98371.41
2017-09-19T09:40:39.188Z,98376.81
2017-09-19T09:43:05.691Z,98372.14
2017-09-19T09:45:32.173Z,98366.64
2017-09-19T09:47:58.607Z,98360.06
2017-09-19T09:50:25.043Z,98357.64
2017-09-19T09:52:51.535Z,98363.45
2017-09-19T09:55:18.388Z,98356.76
2017-09-19T09:57:45.066Z,98358.78
2017-09-19T10:00:11.882Z,98356.66
2017-09-19T10:02:38.960Z,98354.53
2017-09-19T10:05:05.907Z,98348.24
2017-09-19T10:07:32.750Z,98353.55
2017-09-19T10:09:59.258Z,98353.88
2017-09-19T10:12:25.675Z,98353.95
2017-09-19T10:14:52.517Z,98350.91
2017-09-19T10:17:19.001Z,98344.22
2017-09-19T10:19:45.652Z,98346.61
2017-09-19T10:22:12.281Z,98347.03
2017-09-19T10:24:38.716Z,98337.38
2017-09-19T10:27:05.151Z,98343.61
2017-09-19T10:29:31.547Z,98336.05
2017-09-19T10:31:58.017Z,98328.34
2017-09-19T10:34:24.762Z,98327.41
2017-09-19T10:36:51.148Z,98321.38
2017-09-19T10:39:17.621Z,98317.06
2017-09-19T10:41:44.066Z,98314.70
2017-09-19T10:44:10.604Z,98323.66
2017-09-19T10:46:37.039Z,98320.03
2017-09-19T10:49:03.475Z,98301.16
2017-09-19T10:51:30.113Z,98313.13
2017-09-19T10:53:56.653Z,98307.14
2017-09-19T10:56:23.087Z,98274.59
2017-09-19T10:58:49.520Z,98294.02
2017-09-19T11:01:15.957Z,98282.31
2017-09-19T11:03:42.390Z,98279.51
2017-09-19T11:06:08.830Z,98281.34
2017-09-19T11:11:06.815Z,98272.95
2017-09-19T11:13:34.075Z,98271.88
2017-09-19T11:16:00.504Z,98262.38
2017-09-19T11:18:26.939Z,98269.53
2017-09-19T11:20:53.377Z,98263.47
2017-09-19T11:23:19.918Z,98264.53
2017-09-19T11:25:46.512Z,98255.06
2017-09-19T11:28:13.089Z,98253.23
2017-09-19T11:30:40.143Z,98253.17
2017-09-19T11:33:06.582Z,98241.92
2017-09-19T11:35:33.317Z,98236.38
2017-09-19T11:37:59.958Z,98243.66
2017-09-19T11:40:26.801Z,98247.42
2017-09-19T11:42:53.702Z,98245.88
2017-09-19T11:45:20.161Z,98243.52
2017-09-19T11:47:46.821Z,98243.11
2017-09-19T11:50:13.365Z,98246.42
2017-09-19T11:52:40.264Z,98241.02
2017-09-19T11:55:07.035Z,98234.34
2017-09-19T11:57:33.477Z,98232.11
2017-09-19T11:59:59.999Z,98222.28
2017-09-19T12:02:27.274Z,98226.48
2017-09-19T12:04:53.628Z,98220.05
2017-09-19T12:07:20.245Z,98215.17
2017-09-19T12:09:46.722Z,98217.77
2017-09-19T12:12:13.629Z,98210.17
2017-09-19T12:14:40.267Z,98197.88
2017-09-19T12:17:06.917Z,98194.47
2017-09-19T12:19:33.341Z,98195.92
2017-09-19T12:21:59.879Z,98199.34
2017-09-19T12:24:26.733Z,98197.04
2017-09-19T12:26:53.158Z,98193.50
2017-09-19T12:29:20.269Z,98190.81
2017-09-19T12:31:46.901Z,98191.50
2017-09-19T12:34:13.692Z,98195.37
2017-09-19T12:36:40.322Z,98196.82
2017-09-19T12:39:06.765Z,98191.39
2017-09-19T12:41:33.202Z,98183.45
2017-09-19T12:43:59.695Z,98186.23
2017-09-19T12:46:26.169Z,98187.30
2017-09-19T12:48:52.713Z,98174.45
2017-09-19T12:51:19.251Z,98169.71
2017-09-19T12:53:45.890Z,98165.94
2017-09-19T12:56:12.425Z,98168.00
2017-09-19T12:58:38.862Z,98170.79
2017-09-19T13:01:05.297Z,98159.73
2017-09-19T13:03:31.882Z,98160.70
2017-09-19T13:05:58.693Z,98163.00
2017-09-19T13:08:25.318Z,98167.59
2017-09-19T13:10:51.975Z,98156.11
2017-09-19T13:13:19.077Z,98156.33
2017-09-19T13:15:45.804Z,98158.67
2017-09-19T13:18:12.797Z,98165.52
2017-09-19T13:20:39.751Z,98153.19
2017-09-19T13:23:06.896Z,98162.98
2017-09-19T13:25:33.332Z,98160.77
2017-09-19T13:28:00.484Z,98154.40
2017-09-19T13:30:27.020Z,98154.08
2017-09-19T13:32:53.557Z,98155.53
2017-09-19T13:35:20.151Z,98157.45
2017-09-19T13:37:46.588Z,98153.59
2017-09-19T13:40:13.066Z,98157.14
2017-09-19T13:42:39.606Z,98154.30
2017-09-19T13:45:06.603Z,98142.25
2017-09-19T13:47:33.078Z,98148.16
2017-09-19T13:49:59.799Z,98152.15
2017-09-19T13:52:26.221Z,98153.06
2017-09-19T13:54:52.782Z,98148.48
2017-09-19T13:57:19.226Z,98149.36
2017-09-19T13:59:45.621Z,98155.71
2017-09-19T14:02:12.621Z,98151.98
2017-09-19T14:04:39.157Z,98156.23
2017-09-19T14:07:05.591Z,98146.08
2017-09-19T14:09:32.744Z,98153.70
2017-09-19T14:11:59.161Z,98157.75
2017-09-19T14:14:25.708Z,98154.59
2017-09-19T14:16:52.159Z,98158.11
2017-09-19T14:19:19.404Z,98157.65
2017-09-19T14:21:46.200Z,98158.34
2017-09-19T14:24:12.683Z,98160.09
2017-09-19T14:26:39.120Z,98161.26
2017-09-19T14:29:05.862Z,98175.36
2017-09-19T14:31:32.294Z,98166.53
2017-09-19T14:33:58.825Z,98170.08
2017-09-19T14:36:25.582Z,98174.33
2017-09-19T14:38:52.419Z,98167.00
2017-09-19T14:41:19.471Z,98168.38
2017-09-19T14:43:46.108Z,98167.47
2017-09-19T14:46:12.685Z,98167.92
2017-09-19T14:48:39.636Z,98168.61
2017-09-19T14:51:06.027Z,98156.86
2017-09-19T14:53:32.565Z,98172.17
2017-09-19T14:55:58.999Z,98169.38
2017-09-19T14:58:25.434Z,98172.61
2017-09-19T15:00:51.870Z,98172.50
2017-09-19T15:03:18.512Z,98168.66
2017-09-19T15:05:45.046Z,98166.25
2017-09-19T15:08:11.482Z,98164.48
2017-09-19T15:10:37.898Z,98170.77
2017-09-19T15:13:04.453Z,98167.42
2017-09-19T15:15:30.893Z,98167.83
2017-09-19T15:17:57.323Z,98169.75
2017-09-19T15:20:23.758Z,98164.20
2017-09-19T15:22:50.296Z,98163.77
2017-09-19T15:25:16.834Z,98156.15
2017-09-19T15:27:43.271Z,98153.27
2017-09-19T15:30:09.654Z,98161.92
2017-09-19T15:32:36.139Z,98152.91
2017-09-19T15:35:02.556Z,98149.91
2017-09-19T15:37:28.999Z,98143.28
2017-09-19T15:39:55.442Z,98147.38
2017-09-19T15:42:21.866Z,98152.34
2017-09-19T15:44:48.331Z,98149.67
2017-09-19T15:47:14.749Z,98144.95
2017-09-19T15:49:41.184Z,98146.73
2017-09-19T15:52:07.620Z,98145.44
2017-09-19T15:54:34.154Z,98146.22
2017-09-19T15:57:00.589Z,98145.63
2017-09-19T15:59:27.042Z,98143.19
2017-09-19T16:01:53.616Z,98143.14
2017-09-19T16:04:20.099Z,98146.86
2017-09-19T16:06:46.533Z,98143.06
2017-09-19T16:09:12.969Z,98137.93
2017-09-19T16:11:39.403Z,98142.98
2017-09-19T16:14:05.941Z,98142.95
2017-09-19T16:16:32.376Z,98151.14
2017-09-19T16:18:58.810Z,98147.00
2017-09-19T16:21:25.963Z,98141.63
2017-09-19T16:23:52.502Z,98139.73
2017-09-19T16:26:18.935Z,98148.50
2017-09-19T16:28:45.370Z,98146.90
2017-09-19T16:31:11.805Z,98147.84
2017-09-19T16:33:38.241Z,98151.02
2017-09-19T16:36:04.674Z,98150.18
2017-09-19T16:38:31.930Z,98149.09
2017-09-19T16:40:58.296Z,98150.90
2017-09-19T16:43:24.790Z,98148.13
2017-09-19T16:45:51.235Z,98157.28
2017-09-19T16:48:17.619Z,98154.51
2017-09-19T16:50:44.001Z,98161.20
2017-09-19T16:53:10.538Z,98162.66
2017-09-19T16:55:37.645Z,98158.15
2017-09-19T16:58:04.123Z,98168.71
2017-09-19T17:00:30.560Z,98172.39
2017-09-19T17:02:57.098Z,98166.58
2017-09-19T17:05:23.533Z,98177.60
2017-09-19T17:07:49.966Z,98181.36
2017-09-19T17:10:16.402Z,98183.84
2017-09-19T17:12:43.607Z,98184.73
2017-09-19T17:15:10.091Z,98190.84
2017-09-19T17:17:36.526Z,98193.92
2017-09-19T17:20:02.959Z,98189.73
2017-09-19T17:22:29.394Z,98190.61
2017-09-19T17:24:55.830Z,98191.33
2017-09-19T17:27:22.264Z,98193.94
2017-09-19T17:29:49.406Z,98200.81
2017-09-19T17:32:15.851Z,98201.13
2017-09-19T17:34:42.287Z,98205.25
2017-09-19T17:37:08.721Z,98207.05
2017-09-19T17:39:35.157Z,98213.20
2017-09-19T17:42:01.591Z,98208.25
2017-09-19T17:44:28.129Z,98204.80
2017-09-19T17:46:55.280Z,98206.61
2017-09-19T17:49:21.716Z,98203.89
2017-09-19T17:51:48.256Z,98207.98
2017-09-19T17:54:14.790Z,98210.23
2017-09-19T17:56:41.224Z,98208.67
2017-09-19T17:59:07.611Z,98205.92
2017-09-19T18:01:33.993Z,98205.41
2017-09-19T18:04:01.349Z,98210.75
2017-09-19T18:06:27.778Z,98211.16
2017-09-19T18:08:54.219Z,98203.68
2017-09-19T18:11:20.703Z,98202.52
2017-09-19T18:13:47.191Z,98212.82
2017-09-19T18:16:13.575Z,98217.42
2017-09-19T18:18:39.958Z,98213.39
2017-09-19T18:21:07.212Z,98214.27
2017-09-19T18:23:33.754Z,98220.88
2017-09-19T18:26:00.185Z,98219.54
2017-09-19T18:28:26.721Z,98230.70
2017-09-19T18:30:53.158Z,98230.22
2017-09-19T18:33:19.647Z,98234.65
2017-09-19T18:35:46.089Z,98241.23
2017-09-19T18:38:13.280Z,98237.72
2017-09-19T18:40:39.717Z,98233.72
2017-09-19T18:43:06.150Z,98230.59
2017-09-19T18:45:32.585Z,98233.84
2017-09-19T18:47:59.020Z,98239.01
2017-09-19T18:50:25.454Z,98241.67
2017-09-19T18:52:51.992Z,98235.80
2017-09-19T18:55:19.044Z,98238.59
2017-09-19T18:57:45.476Z,98237.84
2017-09-19T19:00:11.913Z,98235.89
2017-09-19T19:02:38.448Z,98237.92
2017-09-19T19:05:04.986Z,98231.06
2017-09-19T19:07:31.421Z,98236.04
2017-09-19T19:09:57.857Z,98246.89
2017-09-19T19:12:25.008Z,98252.11
2017-09-19T19:14:51.443Z,98257.91
2017-09-19T19:17:17.878Z,98253.45
2017-09-19T19:19:44.312Z,98260.56
2017-09-19T19:22:10.747Z,98260.96
2017-09-19T19:24:37.140Z,98264.30
2017-09-19T19:27:03.567Z,98261.52
2017-09-19T19:29:30.768Z,98267.23
2017-09-19T19:31:57.204Z,98267.05
2017-09-19T19:34:23.741Z,98257.41
2017-09-19T19:36:50.176Z,98266.69
2017-09-19T19:39:16.610Z,98262.55
2017-09-19T19:41:43.046Z,98262.20
2017-09-19T19:44:09.572Z,98264.66
2017-09-19T19:46:36.682Z,98263.94
2017-09-19T19:49:03.173Z,98266.30
2017-09-19T19:51:29.556Z,98275.99
2017-09-19T19:53:55.990Z,98274.03
2017-09-19T19:56:22.476Z,98280.74
2017-09-19T19:58:49.039Z,98282.50
2017-09-19T20:01:15.446Z,98281.52
2017-09-19T20:03:42.600Z,98275.04
2017-09-19T20:06:09.035Z,98270.13
2017-09-19T20:08:35.469Z,98264.63
2017-09-19T20:11:02.007Z,98270.31
2017-09-19T20:13:28.543Z,98285.45
2017-09-19T20:15:54.980Z,98281.58
2017-09-19T20:18:21.519Z,98283.76
2017-09-19T20:20:48.873Z,98291.45
2017-09-19T20:23:15.418Z,98284.39
2017-09-19T20:25:41.946Z,98286.77
2017-09-19T20:28:08.381Z,98287.35
2017-09-19T20:30:34.911Z,98284.02
2017-09-19T20:33:01.455Z,98277.95
2017-09-19T20:35:27.890Z,98274.80
2017-09-19T20:37:55.041Z,98272.23
2017-09-19T20:40:21.477Z,98272.45
2017-09-19T20:42:48.014Z,98273.59
2017-09-19T20:45:14.444Z,98271.83
2017-09-19T20:47:40.986Z,98268.91
2017-09-19T20:50:07.422Z,98277.34
2017-09-19T20:52:33.958Z,98275.39
2017-09-19T20:55:01.110Z,98270.86
2017-09-19T20:57:27.547Z,98272.64
2017-09-19T20:59:53.980Z,98271.45
2017-09-19T21:02:20.415Z,98270.27
2017-09-19T21:04:46.904Z,98279.12
2017-09-19T21:07:13.387Z,98286.59
2017-09-19T21:09:39.822Z,98288.33
2017-09-19T21:12:07.077Z,98292.86
2017-09-19T21:14:33.569Z,98282.05
2017-09-19T21:17:00.049Z,98287.93
2017-09-19T21:19:26.437Z,98292.84
2017-09-19T21:21:52.918Z,98282.02
2017-09-19T21:24:19.456Z,98291.23
2017-09-19T21:26:45.891Z,98292.21
2017-09-19T21:29:12.266Z,98291.41
2017-09-19T21:31:38.759Z,98286.08
2017-09-19T21:34:05.297Z,98292.55
2017-09-19T21:36:31.733Z,98285.11
2017-09-19T21:38:58.167Z,98281.98
2017-09-19T21:41:24.705Z,98269.59
2017-09-19T21:43:51.223Z,98272.55
2017-09-19T21:46:18.394Z,98266.09
2017-09-19T21:48:44.829Z,98266.28
2017-09-19T21:51:11.227Z,98270.23
2017-09-19T21:53:37.598Z,98261.97
2017-09-19T21:56:04.032Z,98258.50
2017-09-19T21:58:30.467Z,98253.97
2017-09-19T22:00:56.901Z,98252.41
2017-09-19T22:03:24.053Z,98242.98
2017-09-19T22:05:50.519Z,98248.67
2017-09-19T22:08:16.875Z,98244.17
2017-09-19T22:10:43.345Z,98248.28
2017-09-19T22:13:09.892Z,98245.75
2017-09-19T22:15:36.330Z,98244.94
2017-09-19T22:18:02.764Z,98240.39
2017-09-19T22:20:29.916Z,98243.13
2017-09-19T22:22:56.454Z,98242.53
2017-09-19T22:25:22.877Z,98242.73
2017-09-19T22:27:49.321Z,98260.20
2017-09-19T22:30:15.759Z,98248.22
2017-09-19T22:32:42.296Z,98250.55
2017-09-19T22:35:08.728Z,98254.86
2017-09-19T22:37:35.882Z,98254.66
2017-09-19T22:40:02.235Z,98247.17
2017-09-19T22:42:28.626Z,98245.17
2017-09-19T22:44:55.084Z,98238.45
2017-09-19T22:47:21.514Z,98239.03
2017-09-19T22:49:47.955Z,98240.59
2017-09-19T22:52:14.390Z,98236.89
2017-09-19T22:54:40.830Z,98228.45
2017-09-19T22:57:07.259Z,98229.19
2017-09-19T22:59:33.694Z,98228.17
2017-09-19T23:02:00.129Z,98223.49
2017-09-19T23:04:26.666Z,98229.58
2017-09-19T23:06:53.103Z,98225.84
2017-09-19T23:09:19.537Z,98225.08
2017-09-19T23:11:46.640Z,98223.30
2017-09-19T23:14:13.123Z,98218.17
2017-09-19T23:16:39.500Z,98224.44
2017-09-19T23:19:05.970Z,98212.67
2017-09-19T23:21:32.427Z,98210.33
2017-09-19T23:23:58.959Z,98217.20
2017-09-19T23:26:25.397Z,98219.96
2017-09-19T23:28:52.551Z,98227.64
2017-09-19T23:31:18.986Z,98226.13
2017-09-19T23:33:45.524Z,98227.94
2017-09-19T23:36:11.945Z,98234.22
2017-09-19T23:38:38.495Z,98230.12
2017-09-19T23:41:04.931Z,98222.27
2017-09-19T23:43:31.469Z,98223.22
2017-09-19T23:45:58.617Z,98220.42
2017-09-19T23:48:25.055Z,98225.52
2017-09-19T23:50:51.490Z,98225.54
2017-09-19T23:53:18.027Z,98231.99
2017-09-19T23:55:44.465Z,98232.58
2017-09-19T23:58:10.896Z,98231.59
